Time;durP1;ratioP1;P1;durP2;ratioP2;P2;SDS_P1;SDS_P2;PMS_P1;PMS_P2;Temp;Humidity;BMP_temperature;BMP_pressure;BME280_temperature;BME280_humidity;BME280_pressure;Samples;Min_cycle;Max_cycle;Signal;HPM_P1;HPM_P2
2021/10/22 00:01:31;;;;;;;;;;;9.80;99.90;;;;;;4975238;28;19910;-76
2021/10/22 00:03:57;;;;;;;;;;;10.00;99.90;;;;;;4974867;28;19914;-73
2021/10/22 00:06:22;;;;;;;;;;;10.10;99.90;;;;;;4974624;28;19952;-75
2021/10/22 00:08:48;;;;;;;;;;;10.10;99.90;;;;;;4974656;28;19957;-71
2021/10/22 00:11:14;;;;;;;;;;;10.00;99.90;;;;;;4974883;28;20271;-75
2021/10/22 00:13:39;;;;;;;;;;;10.00;99.90;;;;;;4974582;28;19913;-74
2021/10/22 00:16:05;;;;;;;;;;;10.00;99.90;;;;;;4974842;28;19967;-70
2021/10/22 00:18:31;;;;;;;;;;;10.00;99.90;;;;;;4974516;28;20000;-71
2021/10/22 00:20:57;;;;;;;;;;;9.90;99.90;;;;;;4975054;28;19917;-72
2021/10/22 00:23:22;;;;;;;;;;;9.80;99.90;;;;;;4974319;28;19917;-73
2021/10/22 00:25:48;;;;;;;;;;;9.60;99.90;;;;;;4974988;28;19906;-71
2021/10/22 00:28:13;;;;;;;;;;;9.50;99.90;;;;;;4974110;28;19918;-72
2021/10/22 00:30:39;;;;;;;;;;;9.40;99.90;;;;;;4975001;28;19965;-72
2021/10/22 00:33:05;;;;;;;;;;;9.40;99.90;;;;;;4977795;28;19906;-72
2021/10/22 00:35:30;;;;;;;;;;;9.40;99.90;;;;;;4978004;28;19906;-72
2021/10/22 00:37:56;;;;;;;;;;;9.30;99.90;;;;;;4978225;28;19906;-73
2021/10/22 00:40:23;;;;;;;;;;;9.30;99.90;;;;;;4977907;28;19954;-73
2021/10/22 00:42:49;;;;;;;;;;;9.30;99.90;;;;;;4978277;28;19917;-73
2021/10/22 00:45:14;;;;;;;;;;;9.30;99.90;;;;;;4977809;28;19913;-72
2021/10/22 00:47:40;;;;;;;;;;;9.50;99.90;;;;;;4978031;28;19906;-72
2021/10/22 00:50:05;;;;;;;;;;;9.50;99.90;;;;;;4977688;28;19913;-72
2021/10/22 00:52:31;;;;;;;;;;;9.40;99.90;;;;;;4977695;28;19929;-72
2021/10/22 00:54:57;;;;;;;;;;;9.30;99.90;;;;;;4977639;28;19987;-74
2021/10/22 00:57:23;;;;;;;;;;;9.30;99.90;;;;;;4977839;28;19989;-74
2021/10/22 00:59:49;;;;;;;;;;;9.20;99.90;;;;;;4977523;28;19906;-70
2021/10/22 01:02:15;;;;;;;;;;;9.20;99.90;;;;;;4977457;28;19910;-70
2021/10/22 01:04:41;;;;;;;;;;;9.10;99.90;;;;;;4977454;28;19992;-74
2021/10/22 01:07:07;;;;;;;;;;;9.00;99.90;;;;;;4977685;28;19914;-71
2021/10/22 01:09:33;;;;;;;;;;;9.00;99.90;;;;;;4977617;28;19910;-70
2021/10/22 01:11:59;;;;;;;;;;;9.10;99.90;;;;;;4977588;28;20422;-72
2021/10/22 01:14:25;;;;;;;;;;;9.10;99.90;;;;;;4977299;28;19906;-74
2021/10/22 01:16:50;;;;;;;;;;;9.00;99.90;;;;;;4977234;28;20377;-71
2021/10/22 01:19:17;;;;;;;;;;;8.80;99.90;;;;;;4977480;28;19996;-72
2021/10/22 01:21:44;;;;;;;;;;;8.80;99.90;;;;;;4977156;28;19906;-73
2021/10/22 01:24:09;;;;;;;;;;;9.00;99.90;;;;;;4976953;28;19956;-74
2021/10/22 01:26:35;;;;;;;;;;;9.00;99.90;;;;;;4977373;28;19918;-74
2021/10/22 01:29:01;;;;;;;;;;;9.00;99.90;;;;;;4977324;28;19913;-70
2021/10/22 01:31:26;;;;;;;;;;;9.00;99.90;;;;;;4977009;28;19945;-71
2021/10/22 01:33:52;;;;;;;;;;;8.90;99.90;;;;;;4977220;28;19906;-73
2021/10/22 01:36:18;;;;;;;;;;;8.80;99.90;;;;;;4976861;28;19913;-72
2021/10/22 01:38:44;;;;;;;;;;;8.90;99.90;;;;;;4976848;28;19906;-71
2021/10/22 01:41:10;;;;;;;;;;;8.80;99.90;;;;;;4976765;28;19906;-73
2021/10/22 01:43:35;;;;;;;;;;;8.80;99.90;;;;;;4976351;28;19914;-70
2021/10/22 01:46:01;;;;;;;;;;;8.90;99.90;;;;;;4975471;28;19906;-70
2021/10/22 01:48:26;;;;;;;;;;;9.00;99.90;;;;;;4976676;28;19910;-74
2021/10/22 01:50:52;;;;;;;;;;;9.20;99.90;;;;;;4976665;28;20318;-70
2021/10/22 01:53:18;;;;;;;;;;;9.20;99.90;;;;;;4976826;28;20340;-70
2021/10/22 01:55:44;;;;;;;;;;;9.10;99.90;;;;;;4976530;28;19906;-71
2021/10/22 01:58:10;;;;;;;;;;;9.20;99.90;;;;;;4975219;28;19906;-71
2021/10/22 02:00:35;;;;;;;;;;;9.30;99.90;;;;;;4976971;28;19913;-71
2021/10/22 02:03:01;;;;;;;;;;;9.20;99.90;;;;;;4976312;28;19910;-69
2021/10/22 02:05:27;;;;;;;;;;;9.30;99.90;;;;;;4976328;28;20315;-74
2021/10/22 02:07:52;;;;;;;;;;;9.30;99.90;;;;;;4976295;28;20001;-73
2021/10/22 02:10:18;;;;;;;;;;;9.20;99.90;;;;;;4976497;28;20358;-72
2021/10/22 02:12:43;;;;;;;;;;;9.00;99.90;;;;;;4976170;28;20007;-72
2021/10/22 02:15:09;;;;;;;;;;;8.80;99.90;;;;;;4976408;28;19909;-70
2021/10/22 02:17:35;;;;;;;;;;;8.80;99.90;;;;;;4976064;28;19906;-72
2021/10/22 02:20:02;;;;;;;;;;;8.70;99.90;;;;;;4976630;28;19906;-72
2021/10/22 02:22:28;;;;;;;;;;;8.50;99.90;;;;;;4975880;28;19964;-73
2021/10/22 02:24:54;;;;;;;;;;;8.50;99.90;;;;;;4974720;28;19906;-74
2021/10/22 02:27:19;;;;;;;;;;;8.50;99.90;;;;;;4975857;28;20001;-70
2021/10/22 02:29:45;;;;;;;;;;;8.60;99.90;;;;;;4975893;28;19906;-74
2021/10/22 02:32:11;;;;;;;;;;;8.70;99.90;;;;;;4976102;28;20256;-69
2021/10/22 02:34:36;;;;;;;;;;;8.60;99.90;;;;;;4974557;28;19906;-73
2021/10/22 02:37:02;;;;;;;;;;;8.60;99.90;;;;;;4976041;28;20252;-70
2021/10/22 02:39:32;;;;;;;;;;;8.60;99.90;;;;;;4975736;28;19910;-73
2021/10/22 02:41:59;;;;;;;;;;;8.70;99.90;;;;;;4975891;28;19913;-75
2021/10/22 02:44:24;;;;;;;;;;;8.80;99.90;;;;;;4975955;28;19906;-70
2021/10/22 02:46:50;;;;;;;;;;;8.60;99.90;;;;;;4975578;28;19906;-72
2021/10/22 02:49:15;;;;;;;;;;;8.40;99.90;;;;;;4975790;28;19906;-74
2021/10/22 02:51:41;;;;;;;;;;;8.30;99.90;;;;;;4975487;28;19992;-69
2021/10/22 02:54:06;;;;;;;;;;;8.20;99.90;;;;;;4973969;28;19917;-73
2021/10/22 02:56:32;;;;;;;;;;;8.10;99.90;;;;;;4974802;28;19921;-74
2021/10/22 02:58:57;;;;;;;;;;;8.20;99.90;;;;;;4974142;28;19906;-72
2021/10/22 03:01:23;;;;;;;;;;;8.20;99.90;;;;;;4975862;28;19913;-69
2021/10/22 03:03:48;;;;;;;;;;;8.30;99.90;;;;;;4975244;28;19916;-75
2021/10/22 03:06:14;;;;;;;;;;;8.50;99.90;;;;;;4975595;28;19910;-72
2021/10/22 03:08:40;;;;;;;;;;;8.30;99.90;;;;;;4975228;28;19938;-71
2021/10/22 03:11:06;;;;;;;;;;;8.30;99.90;;;;;;4975534;28;20354;-77
2021/10/22 03:13:31;;;;;;;;;;;8.10;99.90;;;;;;4975233;28;19965;-75
2021/10/22 03:15:57;;;;;;;;;;;8.00;99.90;;;;;;4975726;28;19910;-71
2021/10/22 03:18:22;;;;;;;;;;;8.00;99.90;;;;;;4975121;28;19913;-73
2021/10/22 03:20:48;;;;;;;;;;;8.20;99.90;;;;;;4973831;28;20333;-71
2021/10/22 03:23:13;;;;;;;;;;;8.10;99.90;;;;;;4974921;28;19910;-70
2021/10/22 03:25:39;;;;;;;;;;;8.20;99.90;;;;;;4975073;28;19960;-73
2021/10/22 03:28:05;;;;;;;;;;;8.30;99.90;;;;;;4974860;28;19918;-75
2021/10/22 03:30:34;;;;;;;;;;;8.40;99.90;;;;;;4975308;28;19906;-74
2021/10/22 03:33:01;;;;;;;;;;;8.50;99.90;;;;;;4974966;28;19913;-74
2021/10/22 03:35:26;;;;;;;;;;;8.10;99.90;;;;;;4975205;28;19906;-76
2021/10/22 03:37:52;;;;;;;;;;;7.90;99.90;;;;;;4974904;28;20422;-73
2021/10/22 03:40:18;;;;;;;;;;;8.10;99.90;;;;;;4975163;28;20005;-71
2021/10/22 03:42:43;;;;;;;;;;;8.20;99.90;;;;;;4975112;28;20009;-70
2021/10/22 03:45:09;;;;;;;;;;;8.30;99.90;;;;;;4974848;28;19906;-74
2021/10/22 03:47:35;;;;;;;;;;;8.20;99.90;;;;;;4975086;28;19906;-70
2021/10/22 03:50:00;;;;;;;;;;;8.20;99.90;;;;;;4974846;28;19906;-70
2021/10/22 03:52:26;;;;;;;;;;;8.30;99.90;;;;;;4974800;28;19906;-72
2021/10/22 03:54:51;;;;;;;;;;;8.30;99.90;;;;;;4974729;28;20006;-73
2021/10/22 03:57:17;;;;;;;;;;;8.20;99.90;;;;;;4975039;28;20365;-72
2021/10/22 03:59:42;;;;;;;;;;;8.30;99.90;;;;;;4974707;28;19906;-72
2021/10/22 04:02:08;;;;;;;;;;;8.20;99.90;;;;;;4975136;28;19960;-74
2021/10/22 04:04:34;;;;;;;;;;;8.10;99.90;;;;;;4974682;28;19906;-76
2021/10/22 04:07:02;;;;;;;;;;;8.10;99.90;;;;;;4976885;28;20256;-71
2021/10/22 04:09:31;;;;;;;;;;;8.00;99.90;;;;;;4978472;28;19910;-77
2021/10/22 04:11:56;;;;;;;;;;;7.80;99.90;;;;;;4978701;28;19913;-69
2021/10/22 04:14:22;;;;;;;;;;;7.80;99.90;;;;;;4978370;28;20287;-76
2021/10/22 04:16:48;;;;;;;;;;;7.90;99.90;;;;;;4978380;28;19905;-76
2021/10/22 04:19:13;;;;;;;;;;;8.10;99.90;;;;;;4978284;28;19913;-73
2021/10/22 04:21:38;;;;;;;;;;;8.10;99.90;;;;;;4978283;28;19957;-73
2021/10/22 04:24:04;;;;;;;;;;;7.90;99.90;;;;;;4978318;28;20359;-71
2021/10/22 04:26:30;;;;;;;;;;;7.70;99.90;;;;;;4977972;28;19906;-72
2021/10/22 04:28:55;;;;;;;;;;;7.70;99.90;;;;;;4978736;28;20239;-74
2021/10/22 04:31:21;;;;;;;;;;;7.70;99.90;;;;;;4978101;28;19929;-73
2021/10/22 04:33:46;;;;;;;;;;;7.50;99.90;;;;;;4978574;28;19906;-70
2021/10/22 04:36:13;;;;;;;;;;;7.50;99.90;;;;;;4976662;28;20286;-74
2021/10/22 04:41:23;;;;;;;;;;;7.40;99.90;;;;;;4978514;28;20310;-75
2021/10/22 04:43:49;;;;;;;;;;;7.50;99.90;;;;;;4978065;28;19914;-73
2021/10/22 04:46:15;;;;;;;;;;;7.60;99.90;;;;;;4977792;28;19906;-74
2021/10/22 04:48:41;;;;;;;;;;;7.70;99.90;;;;;;4978037;28;19913;-72
2021/10/22 04:51:06;;;;;;;;;;;7.80;99.90;;;;;;4977766;28;19906;-73
2021/10/22 04:53:32;;;;;;;;;;;7.70;99.90;;;;;;4977986;28;19906;-76
2021/10/22 04:55:57;;;;;;;;;;;7.70;99.90;;;;;;4977575;28;19917;-72
2021/10/22 04:58:23;;;;;;;;;;;7.80;99.90;;;;;;4977599;28;20389;-72
2021/10/22 05:00:48;;;;;;;;;;;7.90;99.90;;;;;;4977814;28;19910;-74
2021/10/22 05:03:14;;;;;;;;;;;7.90;99.90;;;;;;4977433;28;20405;-70
2021/10/22 05:05:40;;;;;;;;;;;7.90;99.90;;;;;;4977516;28;19961;-71
2021/10/22 05:08:05;;;;;;;;;;;7.80;99.90;;;;;;4977691;28;19906;-71
2021/10/22 05:10:31;;;;;;;;;;;7.80;99.90;;;;;;4977682;28;19914;-72
2021/10/22 05:12:56;;;;;;;;;;;7.80;99.90;;;;;;4977337;28;19913;-75
2021/10/22 05:15:23;;;;;;;;;;;7.80;99.90;;;;;;4977599;28;19906;-70
2021/10/22 05:17:49;;;;;;;;;;;7.70;99.90;;;;;;4976215;28;20274;-75
2021/10/22 05:20:15;;;;;;;;;;;7.60;99.90;;;;;;4977493;28;19906;-74
2021/10/22 05:22:41;;;;;;;;;;;7.70;99.90;;;;;;4976900;28;19914;-71
2021/10/22 05:25:07;;;;;;;;;;;7.80;99.90;;;;;;4977130;28;19910;-77
2021/10/22 05:27:32;;;;;;;;;;;7.80;99.90;;;;;;4976991;28;19926;-69
2021/10/22 05:29:58;;;;;;;;;;;7.70;99.90;;;;;;4977305;28;20439;-76
2021/10/22 05:32:23;;;;;;;;;;;7.60;99.90;;;;;;4976973;28;19912;-70
2021/10/22 05:34:49;;;;;;;;;;;7.40;99.90;;;;;;4976934;28;19910;-71
2021/10/22 05:37:14;;;;;;;;;;;7.50;99.90;;;;;;4976926;28;19913;-73
2021/10/22 05:39:40;;;;;;;;;;;7.50;99.90;;;;;;4977375;28;19933;-73
2021/10/22 05:42:06;;;;;;;;;;;7.60;99.90;;;;;;4977002;28;19946;-71
2021/10/22 05:44:31;;;;;;;;;;;7.50;99.90;;;;;;4976714;28;19913;-75
2021/10/22 05:46:57;;;;;;;;;;;7.50;99.90;;;;;;4977206;28;19910;-73
2021/10/22 05:49:23;;;;;;;;;;;7.50;99.90;;;;;;4976674;28;19957;-74
2021/10/22 05:51:50;;;;;;;;;;;7.30;99.90;;;;;;4976929;28;20266;-74
2021/10/22 05:54:15;;;;;;;;;;;7.20;99.90;;;;;;4976630;28;19906;-69
2021/10/22 05:56:41;;;;;;;;;;;7.20;99.90;;;;;;4976553;28;20098;-75
2021/10/22 05:59:07;;;;;;;;;;;7.30;99.90;;;;;;4976457;28;19932;-73
2021/10/22 06:01:32;;;;;;;;;;;7.20;99.90;;;;;;4976734;28;20005;-73
2021/10/22 06:03:58;;;;;;;;;;;7.00;99.90;;;;;;4976329;28;20073;-73
2021/10/22 06:06:24;;;;;;;;;;;7.10;99.90;;;;;;4976372;28;19913;-72
2021/10/22 06:08:50;;;;;;;;;;;7.10;99.90;;;;;;4976587;28;19910;-70
2021/10/22 06:11:16;;;;;;;;;;;7.10;99.90;;;;;;4976547;28;19916;-71
2021/10/22 06:13:42;;;;;;;;;;;7.10;99.90;;;;;;4976247;28;20341;-72
2021/10/22 06:16:09;;;;;;;;;;;7.20;99.90;;;;;;4976448;28;20004;-70
2021/10/22 06:18:37;;;;;;;;;;;7.30;99.90;;;;;;4976105;28;19993;-76
2021/10/22 06:21:10;;;;;;;;;;;7.30;99.90;;;;;;4976078;28;19957;-72
2021/10/22 06:23:54;;;;;;;;;;;7.30;99.90;;;;;;4976476;28;20290;-69
2021/10/22 06:26:20;;;;;;;;;;;7.20;99.90;;;;;;4976347;28;20359;-70
2021/10/22 06:28:47;;;;;;;;;;;7.10;99.90;;;;;;4976381;28;19953;-72
2021/10/22 06:31:13;;;;;;;;;;;7.10;99.90;;;;;;4976156;28;19914;-75
2021/10/22 06:33:39;;;;;;;;;;;7.20;99.90;;;;;;4975841;28;20286;-72
2021/10/22 06:36:05;;;;;;;;;;;7.30;99.90;;;;;;4975821;28;19912;-70
2021/10/22 06:38:31;;;;;;;;;;;7.30;99.90;;;;;;4976099;28;19906;-70
2021/10/22 06:40:56;;;;;;;;;;;7.10;99.90;;;;;;4975745;28;20015;-73
2021/10/22 06:43:22;;;;;;;;;;;7.20;99.90;;;;;;4974428;28;19910;-73
2021/10/22 06:45:48;;;;;;;;;;;7.10;99.90;;;;;;4975894;28;19913;-72
2021/10/22 06:48:14;;;;;;;;;;;7.30;99.90;;;;;;4975569;28;20049;-73
2021/10/22 06:50:40;;;;;;;;;;;7.40;99.90;;;;;;4975553;28;19913;-74
2021/10/22 06:53:07;;;;;;;;;;;7.40;99.90;;;;;;4975848;28;19906;-71
2021/10/22 06:55:33;;;;;;;;;;;7.20;99.90;;;;;;4975517;28;19909;-71
2021/10/22 06:57:58;;;;;;;;;;;7.30;99.90;;;;;;4976021;28;19906;-74
2021/10/22 07:00:24;;;;;;;;;;;7.20;99.90;;;;;;4975393;28;19913;-73
2021/10/22 07:02:50;;;;;;;;;;;7.20;99.90;;;;;;4975331;28;19910;-72
2021/10/22 07:07:58;;;;;;;;;;;7.20;99.90;;;;;;4975068;28;20455;-74
2021/10/22 07:10:23;;;;;;;;;;;7.30;99.90;;;;;;4975274;28;19913;-70
2021/10/22 07:12:49;;;;;;;;;;;7.20;99.90;;;;;;4975476;28;20252;-75
2021/10/22 07:15:15;;;;;;;;;;;7.30;99.90;;;;;;4975152;28;20350;-73
2021/10/22 07:17:42;;;;;;;;;;;7.50;99.90;;;;;;4975437;28;19906;-75
2021/10/22 07:20:11;;;;;;;;;;;7.40;99.90;;;;;;4975126;28;19934;-72
2021/10/22 07:22:37;;;;;;;;;;;7.20;99.90;;;;;;4975157;28;20328;-73
2021/10/22 07:25:04;;;;;;;;;;;7.40;99.90;;;;;;4975064;28;19906;-73
2021/10/22 07:27:30;;;;;;;;;;;7.40;99.90;;;;;;4975017;28;20278;-71
2021/10/22 07:29:56;;;;;;;;;;;7.30;99.90;;;;;;4975022;28;19912;-72
2021/10/22 07:32:22;;;;;;;;;;;7.30;99.90;;;;;;4975246;28;20359;-73
2021/10/22 07:34:47;;;;;;;;;;;7.40;99.90;;;;;;4973688;28;19954;-73
2021/10/22 07:37:13;;;;;;;;;;;7.50;99.90;;;;;;4974953;28;19912;-73
2021/10/22 07:39:38;;;;;;;;;;;7.40;99.90;;;;;;4975159;28;20278;-73
2021/10/22 07:42:04;;;;;;;;;;;7.40;99.90;;;;;;4979275;28;19921;-74
2021/10/22 07:44:30;;;;;;;;;;;7.50;99.90;;;;;;4981228;28;19910;-71
2021/10/22 07:46:57;;;;;;;;;;;7.60;99.90;;;;;;4981285;28;19938;-74
2021/10/22 07:49:22;;;;;;;;;;;7.70;99.90;;;;;;4981560;28;19906;-70
2021/10/22 07:51:48;;;;;;;;;;;7.80;99.90;;;;;;4981229;28;19913;-74
2021/10/22 07:54:13;;;;;;;;;;;7.80;99.90;;;;;;4981249;28;19960;-74
2021/10/22 07:56:43;;;;;;;;;;;7.80;99.90;;;;;;4981516;28;19906;-77
2021/10/22 07:59:09;;;;;;;;;;;7.80;99.90;;;;;;4981145;28;19956;-73
2021/10/22 08:01:35;;;;;;;;;;;7.90;99.90;;;;;;4981408;28;20425;-73
2021/10/22 08:04:01;;;;;;;;;;;7.90;99.90;;;;;;4981049;28;20012;-76
2021/10/22 08:06:26;;;;;;;;;;;8.10;99.90;;;;;;4981154;28;19952;-75
2021/10/22 08:08:53;;;;;;;;;;;8.20;99.90;;;;;;4981667;28;20377;-78
2021/10/22 08:11:19;;;;;;;;;;;8.20;99.90;;;;;;4981053;28;19906;-75
2021/10/22 08:13:45;;;;;;;;;;;8.30;99.90;;;;;;4981360;28;20421;-75
2021/10/22 08:16:11;;;;;;;;;;;8.40;99.90;;;;;;4981036;28;19910;-76
2021/10/22 08:18:38;;;;;;;;;;;8.50;99.90;;;;;;4980997;28;20290;-73
2021/10/22 08:21:17;;;;;;;;;;;8.60;99.90;;;;;;4980987;28;19944;-75
2021/10/22 08:23:43;;;;;;;;;;;8.70;99.90;;;;;;4980955;28;19910;-73
2021/10/22 08:26:08;;;;;;;;;;;8.90;99.90;;;;;;4980920;28;19957;-75
2021/10/22 08:28:34;;;;;;;;;;;9.40;99.90;;;;;;4980772;28;19918;-75
2021/10/22 08:31:00;;;;;;;;;;;9.90;99.90;;;;;;4981141;28;19913;-73
2021/10/22 08:33:26;;;;;;;;;;;10.10;99.90;;;;;;4980861;28;19979;-76
2021/10/22 08:35:52;;;;;;;;;;;10.50;99.90;;;;;;4981416;28;20319;-76
2021/10/22 08:38:17;;;;;;;;;;;11.20;99.90;;;;;;4980824;28;19910;-75
2021/10/22 08:40:43;;;;;;;;;;;11.70;99.90;;;;;;4981096;28;19912;-75
2021/10/22 08:43:08;;;;;;;;;;;12.20;99.90;;;;;;4981007;28;19910;-80
2021/10/22 08:45:34;;;;;;;;;;;12.10;99.90;;;;;;4980873;28;20015;-76
2021/10/22 08:48:01;;;;;;;;;;;12.20;99.90;;;;;;4981086;28;20259;-72
2021/10/22 08:50:27;;;;;;;;;;;12.20;99.90;;;;;;4980809;28;19910;-77
2021/10/22 08:52:52;;;;;;;;;;;12.60;99.90;;;;;;4979868;28;19965;-72
2021/10/22 08:55:18;;;;;;;;;;;13.10;99.90;;;;;;4977725;28;19912;-74
2021/10/22 08:57:45;;;;;;;;;;;13.20;99.90;;;;;;4977974;28;20001;-75
2021/10/22 09:00:12;;;;;;;;;;;13.40;99.90;;;;;;4977506;28;19913;-74
2021/10/22 09:02:38;;;;;;;;;;;13.70;99.90;;;;;;4977797;28;20362;-77
2021/10/22 09:05:23;;;;;;;;;;;14.00;99.90;;;;;;4977760;28;19906;-77
2021/10/22 09:07:53;;;;;;;;;;;14.30;99.90;;;;;;4977463;28;19906;-73
2021/10/22 09:10:23;;;;;;;;;;;14.90;99.90;;;;;;4977697;28;19948;-75
2021/10/22 09:12:50;;;;;;;;;;;15.10;99.90;;;;;;4977357;28;19910;-76
2021/10/22 09:15:36;;;;;;;;;;;15.60;99.90;;;;;;4977884;28;19906;-73
2021/10/22 09:18:07;;;;;;;;;;;15.60;99.90;;;;;;4977313;28;19907;-76
2021/10/22 09:20:33;;;;;;;;;;;15.80;99.90;;;;;;4975743;28;19906;-75
2021/10/22 09:23:01;;;;;;;;;;;15.50;99.90;;;;;;4977577;28;19914;-79
2021/10/22 09:25:29;;;;;;;;;;;15.30;99.90;;;;;;4977168;28;19996;-74
2021/10/22 09:27:56;;;;;;;;;;;15.50;99.90;;;;;;4976924;28;19918;-78
2021/10/22 09:30:30;;;;;;;;;;;15.30;99.90;;;;;;4977057;28;19913;-79
2021/10/22 09:32:57;;;;;;;;;;;15.50;99.90;;;;;;4977353;28;20045;-77
2021/10/22 09:35:38;;;;;;;;;;;15.50;99.90;;;;;;4976939;28;20278;-75
2021/10/22 09:38:07;;;;;;;;;;;15.70;99.90;;;;;;4975659;28;20400;-73
2021/10/22 09:40:33;;;;;;;;;;;16.00;99.90;;;;;;4977179;28;19912;-74
2021/10/22 09:43:09;;;;;;;;;;;16.10;99.90;;;;;;4976782;28;19910;-75
2021/10/22 09:45:35;;;;;;;;;;;16.10;99.90;;;;;;4977105;28;19914;-75
2021/10/22 09:48:00;;;;;;;;;;;15.90;99.90;;;;;;4976728;28;19906;-73
2021/10/22 09:50:27;;;;;;;;;;;15.90;99.90;;;;;;4976960;28;19906;-74
2021/10/22 09:52:53;;;;;;;;;;;15.90;99.90;;;;;;4976664;28;19906;-73
2021/10/22 09:55:21;;;;;;;;;;;15.90;99.90;;;;;;4976646;28;19957;-76
2021/10/22 09:58:03;;;;;;;;;;;15.80;99.90;;;;;;4976814;28;19906;-76
2021/10/22 10:00:33;;;;;;;;;;;15.60;99.90;;;;;;4976780;28;19953;-75
2021/10/22 10:02:59;;;;;;;;;;;15.40;99.90;;;;;;4976666;28;19957;-73
2021/10/22 10:05:26;;;;;;;;;;;15.20;99.90;;;;;;4975916;28;20355;-73
2021/10/22 10:07:51;;;;;;;;;;;15.00;99.90;;;;;;4976917;28;19993;-75
2021/10/22 10:10:17;;;;;;;;;;;14.90;99.90;;;;;;4976614;28;20029;-76
2021/10/22 10:12:43;;;;;;;;;;;14.90;99.90;;;;;;4976810;28;19906;-74
2021/10/22 10:15:09;;;;;;;;;;;14.80;99.90;;;;;;4976229;28;19910;-75
2021/10/22 10:17:41;;;;;;;;;;;14.60;99.90;;;;;;4976418;28;19956;-75
2021/10/22 10:20:08;;;;;;;;;;;14.50;99.90;;;;;;4976129;28;19906;-73
2021/10/22 10:22:34;;;;;;;;;;;14.30;99.90;;;;;;4975931;28;20362;-75
2021/10/22 10:25:03;;;;;;;;;;;14.40;99.90;;;;;;4976007;28;19913;-74
2021/10/22 10:27:42;;;;;;;;;;;14.50;99.90;;;;;;4975772;28;19957;-74
2021/10/22 10:30:11;;;;;;;;;;;14.40;99.90;;;;;;4974445;28;19910;-73
2021/10/22 10:32:39;;;;;;;;;;;14.30;99.90;;;;;;4975883;28;20359;-74
2021/10/22 10:35:10;;;;;;;;;;;14.40;99.90;;;;;;4974885;28;20351;-74
2021/10/22 10:37:38;;;;;;;;;;;14.50;99.90;;;;;;4974532;28;19906;-74
2021/10/22 10:40:13;;;;;;;;;;;14.40;99.90;;;;;;4974565;28;20478;-79
2021/10/22 10:42:43;;;;;;;;;;;14.40;99.90;;;;;;4975087;28;19910;-71
2021/10/22 10:45:14;;;;;;;;;;;14.40;99.90;;;;;;4975064;28;19906;-72
2021/10/22 10:47:42;;;;;;;;;;;14.40;99.90;;;;;;4975036;28;19913;-73
2021/10/22 10:50:08;;;;;;;;;;;14.40;99.90;;;;;;4975230;28;20321;-74
2021/10/22 10:52:40;;;;;;;;;;;14.30;99.90;;;;;;4975857;28;19906;-73
2021/10/22 10:55:16;;;;;;;;;;;14.20;99.90;;;;;;4975480;28;20358;-75
2021/10/22 10:57:49;;;;;;;;;;;14.20;99.90;;;;;;4975984;28;19913;-75
2021/10/22 11:00:15;;;;;;;;;;;14.20;99.90;;;;;;4975451;28;20350;-77
2021/10/22 11:03:05;;;;;;;;;;;14.30;99.90;;;;;;4975595;28;19910;-72
2021/10/22 11:05:50;;;;;;;;;;;14.20;99.90;;;;;;4975382;28;19997;-74
2021/10/22 11:08:23;;;;;;;;;;;14.10;99.90;;;;;;4973823;28;20396;-74
2021/10/22 11:11:11;;;;;;;;;;;14.20;99.90;;;;;;4975266;28;19997;-73
2021/10/22 11:13:43;;;;;;;;;;;14.20;99.90;;;;;;4975523;28;19912;-73
2021/10/22 11:16:21;;;;;;;;;;;14.20;99.90;;;;;;4974396;28;20363;-75
2021/10/22 11:18:52;;;;;;;;;;;14.20;99.90;;;;;;4975432;28;19953;-73
2021/10/22 11:21:21;;;;;;;;;;;14.10;99.90;;;;;;4975112;28;19910;-74
2021/10/22 11:23:47;;;;;;;;;;;14.00;99.90;;;;;;4975002;28;19910;-74
2021/10/22 11:26:13;;;;;;;;;;;14.10;99.90;;;;;;4974896;28;19913;-75
2021/10/22 11:28:39;;;;;;;;;;;14.10;99.90;;;;;;4975599;28;20362;-74
2021/10/22 11:31:05;;;;;;;;;;;14.10;99.90;;;;;;4975039;28;19913;-75
2021/10/22 11:33:31;;;;;;;;;;;14.20;99.90;;;;;;4975277;28;19907;-73
2021/10/22 11:35:57;;;;;;;;;;;14.30;99.90;;;;;;4974979;28;19912;-74
2021/10/22 11:38:27;;;;;;;;;;;14.40;99.90;;;;;;4975234;28;20359;-76
2021/10/22 11:40:53;;;;;;;;;;;14.40;99.90;;;;;;4975198;28;20354;-75
2021/10/22 11:43:20;;;;;;;;;;;14.60;99.90;;;;;;4974833;28;19916;-76
2021/10/22 11:45:51;;;;;;;;;;;14.80;99.90;;;;;;4974884;28;19928;-78
2021/10/22 11:48:32;;;;;;;;;;;14.70;99.90;;;;;;4973371;28;19960;-76
2021/10/22 11:50:58;;;;;;;;;;;14.60;99.90;;;;;;4974809;28;20291;-72
2021/10/22 11:53:25;;;;;;;;;;;14.40;99.90;;;;;;4975099;28;19913;-76
2021/10/22 11:55:53;;;;;;;;;;;14.30;99.90;;;;;;4974801;28;20294;-76
2021/10/22 11:58:21;;;;;;;;;;;14.30;99.90;;;;;;4974808;28;20286;-76
2021/10/22 12:00:48;;;;;;;;;;;14.30;99.90;;;;;;4974746;28;19988;-75
2021/10/22 12:03:13;;;;;;;;;;;14.30;99.90;;;;;;4974689;28;19909;-72
2021/10/22 12:05:46;;;;;;;;;;;14.30;99.90;;;;;;4974959;28;20315;-75
2021/10/22 12:08:16;;;;;;;;;;;14.40;99.90;;;;;;4974650;28;19937;-72
2021/10/22 12:10:45;;;;;;;;;;;14.50;99.90;;;;;;4974663;28;19910;-77
2021/10/22 12:13:11;;;;;;;;;;;14.60;99.90;;;;;;4973355;28;20290;-77
2021/10/22 12:15:36;;;;;;;;;;;14.70;99.90;;;;;;4974631;28;19906;-73
2021/10/22 12:18:04;;;;;;;;;;;14.70;99.90;;;;;;4974631;28;19912;-75
2021/10/22 12:20:31;;;;;;;;;;;14.70;99.90;;;;;;4975128;28;20371;-73
2021/10/22 12:22:58;;;;;;;;;;;14.60;99.90;;;;;;4974452;28;19952;-76
2021/10/22 12:25:26;;;;;;;;;;;14.50;99.90;;;;;;4974547;28;19912;-74
2021/10/22 12:27:52;;;;;;;;;;;14.50;99.90;;;;;;4975905;28;19918;-73
2021/10/22 12:30:19;;;;;;;;;;;14.50;99.90;;;;;;4978747;28;19906;-75
2021/10/22 12:32:44;;;;;;;;;;;14.50;99.90;;;;;;4978147;28;19906;-73
2021/10/22 12:35:15;;;;;;;;;;;14.40;99.90;;;;;;4978083;28;19906;-74
2021/10/22 12:37:42;;;;;;;;;;;14.40;99.90;;;;;;4978344;28;19906;-76
2021/10/22 12:40:17;;;;;;;;;;;14.40;99.90;;;;;;4978011;28;20004;-76
2021/10/22 12:42:43;;;;;;;;;;;14.40;99.40;;;;;;4977857;28;20068;-74
2021/10/22 12:45:21;;;;;;;;;;;14.60;99.90;;;;;;4977936;28;20405;-75
2021/10/22 12:47:49;;;;;;;;;;;14.80;99.60;;;;;;4977813;28;20284;-75
2021/10/22 12:50:15;;;;;;;;;;;14.80;97.40;;;;;;4978105;28;19906;-76
2021/10/22 12:52:41;;;;;;;;;;;14.70;98.60;;;;;;4977838;28;20425;-71
2021/10/22 12:55:19;;;;;;;;;;;14.70;99.40;;;;;;4977715;28;19910;-75
2021/10/22 12:57:45;;;;;;;;;;;14.70;99.30;;;;;;4977988;28;20359;-74
2021/10/22 13:00:22;;;;;;;;;;;14.60;99.70;;;;;;4976387;28;19913;-75
2021/10/22 13:02:48;;;;;;;;;;;14.60;99.90;;;;;;4978106;28;19936;-77
2021/10/22 13:05:17;;;;;;;;;;;14.60;99.90;;;;;;4977565;28;19906;-73
2021/10/22 13:08:07;;;;;;;;;;;14.70;99.10;;;;;;4977503;28;19906;-75
2021/10/22 13:14:02;;;;;;;;;;;14.80;97.90;;;;;;4977761;28;19997;-78
2021/10/22 13:21:18;;;;;;;;;;;14.70;98.50;;;;;;4976982;28;19912;-75
2021/10/22 13:23:44;;;;;;;;;;;14.60;98.80;;;;;;4977349;28;19910;-76
2021/10/22 13:26:09;;;;;;;;;;;14.50;98.00;;;;;;4977143;28;19913;-76
2021/10/22 13:28:35;;;;;;;;;;;14.40;98.90;;;;;;4976956;28;20392;-77
2021/10/22 13:31:07;;;;;;;;;;;14.30;99.60;;;;;;4977342;28;19941;-72
2021/10/22 13:33:32;;;;;;;;;;;14.30;99.90;;;;;;4975518;28;19957;-76
2021/10/22 13:35:59;;;;;;;;;;;14.40;99.90;;;;;;4977319;28;20322;-77
2021/10/22 13:38:25;;;;;;;;;;;14.50;99.90;;;;;;4976544;28;19907;-77
2021/10/22 13:40:51;;;;;;;;;;;14.50;99.90;;;;;;4976699;28;20248;-73
2021/10/22 13:43:16;;;;;;;;;;;14.60;99.90;;;;;;4976789;28;20004;-74
2021/10/22 13:45:43;;;;;;;;;;;14.60;99.90;;;;;;4977024;28;20065;-73
2021/10/22 13:48:08;;;;;;;;;;;14.60;99.70;;;;;;4976749;28;19910;-73
2021/10/22 13:50:35;;;;;;;;;;;14.60;99.90;;;;;;4976784;28;20290;-74
2021/10/22 13:53:01;;;;;;;;;;;14.50;99.90;;;;;;4976693;28;19906;-76
2021/10/22 13:55:26;;;;;;;;;;;14.40;99.90;;;;;;4976633;28;19906;-75
2021/10/22 13:57:52;;;;;;;;;;;14.40;99.90;;;;;;4976892;28;19906;-76
2021/10/22 14:00:18;;;;;;;;;;;14.30;99.90;;;;;;4976529;28;19945;-77
2021/10/22 14:02:44;;;;;;;;;;;14.30;99.70;;;;;;4976966;28;20347;-73
2021/10/22 14:05:10;;;;;;;;;;;14.30;99.90;;;;;;4976409;28;19913;-74
2021/10/22 14:07:36;;;;;;;;;;;14.30;96.90;;;;;;4975135;28;19912;-73
2021/10/22 14:10:02;;;;;;;;;;;14.30;96.90;;;;;;4976360;28;19906;-72
2021/10/22 14:12:37;;;;;;;;;;;14.30;95.40;;;;;;4976872;28;19910;-73
2021/10/22 14:31:09;;;;;;;;;;;14.50;94.60;;;;;;4976044;28;19917;-72
2021/10/22 14:33:36;;;;;;;;;;;14.40;93.60;;;;;;4975925;28;20421;-76
2021/10/22 14:36:01;;;;;;;;;;;14.40;94.30;;;;;;4976434;28;19996;-73
2021/10/22 14:38:27;;;;;;;;;;;14.60;95.00;;;;;;4975841;28;19949;-71
2021/10/22 14:40:55;;;;;;;;;;;14.60;94.60;;;;;;4976320;28;19906;-76
2021/10/22 14:43:29;;;;;;;;;;;14.80;98.60;;;;;;4975701;28;20044;-74
2021/10/22 14:48:44;;;;;;;;;;;14.90;99.40;;;;;;4975416;28;19952;-75
2021/10/22 14:51:13;;;;;;;;;;;14.80;98.30;;;;;;4976090;28;19929;-74
2021/10/22 14:53:49;;;;;;;;;;;14.60;98.60;;;;;;4974316;28;20366;-73
2021/10/22 14:56:15;;;;;;;;;;;14.60;98.60;;;;;;4973982;28;19906;-72